Terminal Aerodrome Forecast
Issued by NWS Cleveland, OH

Home | Current Version | Previous Version | Text Only | Print | Product List | Glossary Off
Versions: 1 2 3 4 5 6 7 8 9 10 11 12 13 14 15 16 17 18 19 20 21 22 23 24 25 26 27

000
FTUS41 KCLE 290145 AAA
TAFCLE
TAF AMD
KCLE 290145Z 2902/3006 02009KT P6SM OVC012
      TEMPO 2902/2903 -SHRA
     FM290500 04006KT 4SM -DZ BR OVC007
     FM291000 02005KT 1 1/2SM BR OVC003
     FM291500 02006KT P6SM OVC007
     FM291600 01008KT P6SM OVC015
     FM300300 36004KT P6SM OVC015=

USA.gov is the U.S. government's official web portal to all federal, state and local government web resources and services.